createdAt,value
2019-03-26T00:00:08.963Z,0.00
2019-03-26T00:01:08.907Z,0.00
2019-03-26T00:02:08.906Z,0.00
2019-03-26T00:03:08.910Z,0.00
2019-03-26T00:04:08.924Z,0.00
2019-03-26T00:05:08.880Z,0.00
2019-03-26T00:06:08.874Z,0.00
2019-03-26T00:07:08.855Z,0.00
2019-03-26T00:08:08.849Z,0.00
2019-03-26T00:09:08.835Z,0.00
2019-03-26T00:10:08.844Z,0.00
2019-03-26T00:11:08.805Z,0.00
2019-03-26T00:12:08.855Z,0.00
2019-03-26T00:13:08.783Z,0.00
2019-03-26T00:14:08.783Z,0.00
2019-03-26T00:15:08.775Z,0.00
2019-03-26T00:16:08.775Z,0.00
2019-03-26T00:17:08.760Z,0.00
2019-03-26T00:18:08.747Z,0.00
2019-03-26T00:19:11.591Z,0.00
2019-03-26T00:20:08.740Z,0.00
2019-03-26T00:21:08.703Z,0.00
2019-03-26T00:22:08.716Z,0.00
2019-03-26T00:23:08.692Z,0.00
2019-03-26T00:24:08.674Z,0.00
2019-03-26T00:25:08.667Z,0.00
2019-03-26T00:26:08.680Z,0.00
2019-03-26T00:27:08.747Z,0.00
2019-03-26T00:28:08.628Z,0.00
2019-03-26T00:29:08.635Z,0.00
2019-03-26T00:30:08.591Z,0.00
2019-03-26T00:31:08.585Z,0.00
2019-03-26T00:32:08.611Z,0.00
2019-03-26T00:33:08.563Z,0.00
2019-03-26T00:34:18.707Z,0.00
2019-03-26T00:35:11.106Z,0.00
2019-03-26T00:36:08.535Z,0.00
2019-03-26T00:37:08.563Z,0.00
2019-03-26T00:38:08.519Z,0.00
2019-03-26T00:39:08.502Z,0.00
2019-03-26T00:40:08.543Z,0.00
2019-03-26T00:41:08.485Z,0.00
2019-03-26T00:42:08.496Z,0.00
2019-03-26T00:43:08.457Z,0.00
2019-03-26T00:44:08.493Z,0.00
2019-03-26T00:45:08.443Z,0.00
2019-03-26T00:46:08.447Z,0.00
2019-03-26T00:47:08.411Z,0.00
2019-03-26T00:48:08.404Z,0.00
2019-03-26T00:49:08.387Z,0.00
2019-03-26T00:50:08.400Z,0.00
2019-03-26T00:51:08.366Z,0.00
2019-03-26T00:52:08.394Z,0.00
2019-03-26T00:53:08.346Z,0.00
2019-03-26T00:54:08.353Z,0.00
2019-03-26T00:55:21.606Z,0.00
2019-03-26T00:56:08.335Z,0.00
2019-03-26T00:57:08.303Z,0.00
2019-03-26T00:58:08.297Z,0.00
2019-03-26T00:59:08.288Z,0.00
2019-03-26T01:00:08.299Z,0.00
2019-03-26T01:01:08.307Z,0.00
2019-03-26T01:02:08.260Z,0.00
2019-03-26T01:03:08.245Z,0.00
2019-03-26T01:04:08.248Z,0.00
2019-03-26T01:05:08.285Z,0.00
2019-03-26T01:06:08.201Z,0.00
2019-03-26T01:07:08.239Z,0.00
2019-03-26T01:08:08.185Z,0.00
2019-03-26T01:09:08.262Z,0.00
2019-03-26T01:10:08.167Z,0.00
2019-03-26T01:11:08.150Z,0.00
2019-03-26T01:12:08.145Z,0.00
2019-03-26T01:13:08.163Z,0.00
2019-03-26T01:14:08.133Z,0.00
2019-03-26T01:15:08.107Z,0.00
2019-03-26T01:16:08.098Z,0.00
2019-03-26T01:17:08.108Z,0.00
2019-03-26T01:18:08.090Z,0.00
2019-03-26T01:19:08.104Z,0.00
2019-03-26T01:20:08.095Z,0.00
2019-03-26T01:21:08.045Z,0.00
2019-03-26T01:22:08.037Z,0.00
2019-03-26T01:23:08.039Z,0.00
2019-03-26T01:24:08.018Z,0.00
2019-03-26T01:25:08.022Z,0.00
2019-03-26T01:26:08.033Z,0.00
2019-03-26T01:27:07.984Z,0.00
2019-03-26T01:28:07.973Z,0.00
2019-03-26T01:29:07.956Z,0.00
2019-03-26T01:30:07.941Z,0.00
2019-03-26T01:31:07.943Z,0.00
2019-03-26T01:32:07.974Z,0.00
2019-03-26T01:33:07.908Z,0.00
2019-03-26T01:34:07.903Z,0.00
2019-03-26T01:35:07.905Z,0.00
2019-03-26T01:36:07.889Z,0.00
2019-03-26T01:37:07.877Z,0.00
2019-03-26T01:38:07.887Z,0.00
2019-03-26T01:39:07.846Z,0.00
2019-03-26T01:40:09.602Z,0.00
2019-03-26T01:41:07.826Z,0.00
2019-03-26T01:42:07.826Z,0.00
2019-03-26T01:43:07.816Z,0.00
2019-03-26T01:44:07.850Z,0.00
2019-03-26T01:45:07.791Z,0.00
2019-03-26T01:46:07.778Z,0.00
2019-03-26T01:47:07.773Z,0.00
2019-03-26T01:48:07.768Z,0.00
2019-03-26T01:49:07.779Z,0.00
2019-03-26T01:50:07.782Z,0.00
2019-03-26T01:51:07.749Z,0.00
2019-03-26T01:52:07.719Z,0.00
2019-03-26T01:53:07.709Z,0.00
2019-03-26T01:54:07.706Z,0.00
2019-03-26T01:55:07.703Z,0.00
2019-03-26T01:56:07.725Z,0.00
2019-03-26T01:57:07.652Z,0.00
2019-03-26T01:58:07.645Z,0.00
2019-03-26T01:59:07.632Z,0.00
2019-03-26T02:00:07.632Z,0.00
2019-03-26T02:01:07.626Z,0.00
2019-03-26T02:02:07.632Z,0.00
2019-03-26T02:03:07.591Z,0.00
2019-03-26T02:04:07.587Z,0.00
2019-03-26T02:05:07.568Z,0.00
2019-03-26T02:06:07.563Z,0.00
2019-03-26T02:07:07.554Z,0.00
2019-03-26T02:08:07.576Z,0.00
2019-03-26T02:09:07.522Z,0.00
2019-03-26T02:10:07.510Z,0.00
2019-03-26T02:11:07.522Z,0.00
2019-03-26T02:12:07.508Z,0.00
2019-03-26T02:13:07.509Z,0.00
2019-03-26T02:14:07.466Z,0.00
2019-03-26T02:15:07.463Z,0.00
2019-03-26T02:16:07.446Z,0.00
2019-03-26T02:17:07.448Z,0.00
2019-03-26T02:18:07.453Z,0.00
2019-03-26T02:19:07.466Z,0.00
2019-03-26T02:21:09.068Z,0.00
2019-03-26T02:22:07.380Z,0.00
2019-03-26T02:23:07.386Z,0.00
2019-03-26T02:24:07.377Z,0.00
2019-03-26T02:25:07.354Z,0.00
2019-03-26T02:26:07.412Z,0.00
2019-03-26T02:27:07.340Z,0.00
2019-03-26T02:28:07.348Z,0.00
2019-03-26T02:29:07.348Z,0.00
2019-03-26T02:30:07.296Z,0.00
2019-03-26T02:31:07.301Z,0.00
2019-03-26T02:32:07.305Z,0.00
2019-03-26T02:33:07.259Z,0.00
2019-03-26T02:34:07.282Z,0.00
2019-03-26T02:35:17.970Z,0.00
2019-03-26T02:36:07.257Z,0.00
2019-03-26T02:37:07.227Z,0.00
2019-03-26T02:38:07.208Z,0.00
2019-03-26T02:39:07.204Z,0.00
2019-03-26T02:40:07.199Z,0.00
2019-03-26T02:41:07.220Z,0.00
2019-03-26T02:42:07.170Z,0.00
2019-03-26T02:43:07.179Z,0.00
2019-03-26T02:44:07.209Z,0.00
2019-03-26T02:45:07.134Z,0.00
2019-03-26T02:46:07.148Z,0.00
2019-03-26T02:47:07.118Z,0.00
2019-03-26T02:48:08.037Z,0.00
2019-03-26T02:49:07.086Z,0.00
2019-03-26T02:50:07.111Z,0.00
2019-03-26T02:51:07.067Z,0.00
2019-03-26T02:52:07.063Z,0.00
2019-03-26T02:53:09.033Z,0.00
2019-03-26T02:54:07.047Z,0.00
2019-03-26T02:55:07.051Z,0.00
2019-03-26T02:56:07.047Z,0.00
2019-03-26T02:57:07.001Z,0.00
2019-03-26T02:58:07.011Z,0.00
2019-03-26T02:59:07.049Z,0.00
2019-03-26T03:00:06.975Z,0.00
2019-03-26T03:01:06.987Z,0.00
2019-03-26T03:02:06.950Z,0.00
2019-03-26T03:03:07.538Z,0.00
2019-03-26T03:04:06.937Z,0.00
2019-03-26T03:05:06.932Z,0.00
2019-03-26T03:06:06.949Z,0.00
2019-03-26T03:07:06.905Z,0.00
2019-03-26T03:08:06.913Z,0.00
2019-03-26T03:09:06.877Z,0.00
2019-03-26T03:10:06.883Z,0.00
2019-03-26T03:11:06.894Z,0.00
2019-03-26T03:12:06.845Z,32.00
2019-03-26T03:13:06.833Z,36.00
2019-03-26T03:14:06.872Z,36.00
2019-03-26T03:15:06.840Z,36.00
2019-03-26T03:16:06.804Z,36.00
2019-03-26T03:17:06.893Z,36.00
2019-03-26T03:18:06.774Z,36.00
2019-03-26T03:19:06.850Z,36.00
2019-03-26T03:20:06.789Z,36.00
2019-03-26T03:21:06.740Z,36.00
2019-03-26T03:22:06.739Z,0.00
2019-03-26T03:24:05.724Z,0.00
2019-03-26T03:25:06.736Z,0.00
2019-03-26T03:26:06.689Z,0.00
2019-03-26T03:27:06.677Z,0.00
2019-03-26T03:28:06.662Z,0.00
2019-03-26T03:29:06.686Z,0.00
2019-03-26T03:30:06.651Z,0.00
2019-03-26T03:31:06.673Z,0.00
2019-03-26T03:32:06.635Z,0.00
2019-03-26T03:33:06.609Z,0.00
2019-03-26T03:34:06.601Z,0.00
2019-03-26T03:35:06.586Z,0.00
2019-03-26T03:36:06.586Z,0.00
2019-03-26T03:37:07.563Z,0.00
2019-03-26T03:38:06.557Z,0.00
2019-03-26T03:39:06.561Z,0.00
2019-03-26T03:40:06.569Z,0.00
2019-03-26T03:41:06.528Z,0.00
2019-03-26T03:42:06.524Z,0.00
2019-03-26T03:43:06.503Z,0.00
2019-03-26T03:44:06.493Z,0.00
2019-03-26T03:45:06.489Z,0.00
2019-03-26T03:46:06.490Z,0.00
2019-03-26T03:47:06.464Z,0.00
2019-03-26T03:48:06.454Z,0.00
2019-03-26T03:49:06.446Z,0.00
2019-03-26T03:50:06.427Z,0.00
2019-03-26T03:51:06.411Z,0.00
2019-03-26T03:52:06.440Z,0.00
2019-03-26T03:53:06.396Z,0.00
2019-03-26T03:54:06.405Z,0.00
2019-03-26T03:55:06.397Z,0.00
2019-03-26T03:56:06.360Z,0.00
2019-03-26T03:57:06.368Z,0.00
2019-03-26T03:58:06.343Z,0.00
2019-03-26T03:59:06.334Z,0.00
2019-03-26T04:00:06.322Z,0.00
2019-03-26T04:01:06.306Z,0.00
2019-03-26T04:02:06.299Z,0.00
2019-03-26T04:03:06.314Z,0.00
2019-03-26T04:04:06.276Z,0.00
2019-03-26T04:05:06.268Z,0.00
2019-03-26T04:06:09.390Z,0.00
2019-03-26T04:07:06.244Z,0.00
2019-03-26T04:08:06.237Z,0.00
2019-03-26T04:09:06.439Z,0.00
2019-03-26T04:10:06.208Z,0.00
2019-03-26T04:11:06.197Z,0.00
2019-03-26T04:12:06.186Z,0.00
2019-03-26T04:13:06.178Z,0.00
2019-03-26T04:14:06.171Z,0.00
2019-03-26T04:15:06.191Z,0.00
2019-03-26T04:16:06.149Z,0.00
2019-03-26T04:17:06.137Z,0.00
2019-03-26T04:18:06.123Z,0.00
2019-03-26T04:19:06.112Z,0.00
2019-03-26T04:20:06.143Z,0.00
2019-03-26T04:21:06.092Z,0.00
2019-03-26T04:22:06.084Z,0.00
2019-03-26T04:23:06.070Z,0.00
2019-03-26T04:24:06.056Z,0.00
2019-03-26T04:25:06.059Z,0.00
2019-03-26T04:26:06.058Z,0.00
2019-03-26T04:27:06.018Z,0.00
2019-03-26T04:28:08.505Z,0.00
2019-03-26T04:29:06.005Z,0.00
2019-03-26T04:30:05.991Z,0.00
2019-03-26T04:31:05.991Z,4.00
2019-03-26T04:32:06.093Z,4.00
2019-03-26T04:33:05.956Z,0.00
2019-03-26T04:34:05.945Z,4.00
2019-03-26T04:35:05.943Z,4.00
2019-03-26T04:36:05.927Z,4.00
2019-03-26T04:38:04.915Z,4.00
2019-03-26T04:40:04.893Z,8.00
2019-03-26T04:41:05.890Z,12.00
2019-03-26T04:42:05.887Z,8.00
2019-03-26T04:43:05.874Z,12.00
2019-03-26T04:44:05.841Z,16.00
2019-03-26T04:45:05.827Z,12.00
2019-03-26T04:46:05.819Z,16.00
2019-03-26T04:47:05.835Z,16.00
2019-03-26T04:48:05.795Z,16.00
2019-03-26T04:49:05.785Z,24.00
2019-03-26T04:50:05.789Z,28.00
2019-03-26T04:51:05.763Z,32.00
2019-03-26T04:52:05.756Z,40.00
2019-03-26T04:53:05.767Z,44.00
2019-03-26T04:54:05.735Z,44.00
2019-03-26T04:55:05.724Z,48.00
2019-03-26T04:56:05.711Z,56.00
2019-03-26T04:57:05.729Z,60.00
2019-03-26T04:58:05.688Z,60.00
2019-03-26T04:59:05.690Z,56.00
2019-03-26T05:00:05.665Z,56.00
2019-03-26T05:01:05.662Z,72.00
2019-03-26T05:02:06.555Z,84.00
2019-03-26T05:03:05.643Z,88.00
2019-03-26T05:05:04.611Z,92.00
2019-03-26T05:06:05.597Z,100.00
2019-03-26T05:07:05.595Z,108.00
2019-03-26T05:09:05.489Z,124.00
2019-03-26T05:10:05.553Z,116.00
2019-03-26T05:11:05.551Z,108.00
2019-03-26T05:12:05.543Z,104.00
2019-03-26T05:13:05.524Z,112.00
2019-03-26T05:14:05.522Z,128.00
2019-03-26T05:15:05.512Z,168.00
2019-03-26T05:16:05.491Z,212.00
2019-03-26T05:17:05.507Z,208.00
2019-03-26T05:18:05.503Z,196.00
2019-03-26T05:19:05.481Z,232.00
2019-03-26T05:20:05.447Z,288.00
2019-03-26T05:21:05.437Z,328.00
2019-03-26T05:22:05.435Z,316.00
2019-03-26T05:23:05.448Z,312.00
2019-03-26T05:24:05.405Z,296.00
2019-03-26T05:25:05.421Z,292.00
2019-03-26T05:26:05.381Z,264.00
2019-03-26T05:27:05.371Z,280.00
2019-03-26T05:28:05.371Z,312.00
2019-03-26T05:29:05.358Z,276.00
2019-03-26T05:30:05.335Z,256.00
2019-03-26T05:31:05.345Z,252.00
2019-03-26T05:32:05.321Z,316.00
2019-03-26T05:33:07.999Z,416.00
2019-03-26T05:34:05.301Z,408.00
2019-03-26T05:35:05.299Z,384.00
2019-03-26T05:36:07.984Z,432.00
2019-03-26T05:37:05.270Z,520.00
2019-03-26T05:38:05.260Z,568.00
2019-03-26T05:39:05.533Z,588.00
2019-03-26T05:40:05.227Z,616.00
2019-03-26T05:41:05.217Z,632.00
2019-03-26T05:42:05.266Z,580.00
2019-03-26T05:43:05.221Z,580.00
2019-03-26T05:44:05.185Z,532.00
2019-03-26T05:45:05.180Z,456.00
2019-03-26T05:47:04.164Z,428.00
2019-03-26T05:48:05.169Z,452.00
2019-03-26T05:49:05.142Z,568.00
2019-03-26T05:50:05.207Z,516.00
2019-03-26T05:51:05.113Z,404.00
2019-03-26T05:52:05.105Z,352.00
2019-03-26T05:53:05.134Z,396.00
2019-03-26T05:54:05.109Z,480.00
2019-03-26T05:55:05.065Z,456.00
2019-03-26T05:56:05.061Z,552.00
2019-03-26T05:57:05.045Z,524.00
2019-03-26T05:58:05.054Z,512.00
2019-03-26T05:59:05.039Z,596.00
2019-03-26T06:00:05.008Z,720.00
2019-03-26T06:01:05.003Z,760.00
2019-03-26T06:02:14.223Z,812.00
2019-03-26T06:03:07.475Z,868.00
2019-03-26T06:04:05.000Z,724.00
2019-03-26T06:05:04.972Z,744.00
2019-03-26T06:06:04.945Z,776.00
2019-03-26T06:07:05.425Z,664.00
2019-03-26T06:08:07.469Z,592.00
2019-03-26T06:09:07.472Z,600.00
2019-03-26T06:10:04.910Z,548.00
2019-03-26T06:11:04.898Z,560.00
2019-03-26T06:12:04.890Z,704.00
2019-03-26T06:13:04.896Z,660.00
2019-03-26T06:14:04.866Z,824.00
2019-03-26T06:15:04.850Z,904.00
2019-03-26T06:16:04.868Z,1076.00
2019-03-26T06:17:04.835Z,988.00
2019-03-26T06:18:04.830Z,996.00
2019-03-26T06:19:04.801Z,956.00
2019-03-26T06:20:04.794Z,1000.00
2019-03-26T06:21:04.782Z,1100.00
2019-03-26T06:23:03.780Z,1152.00
2019-03-26T06:24:04.759Z,1232.00
2019-03-26T06:25:04.750Z,1212.00
2019-03-26T06:26:04.738Z,1092.00
2019-03-26T06:27:04.742Z,1092.00
2019-03-26T06:28:04.740Z,1052.00
2019-03-26T06:29:05.467Z,984.00
2019-03-26T06:30:04.690Z,1172.00
2019-03-26T06:31:04.671Z,1340.00
2019-03-26T06:32:04.670Z,984.00
2019-03-26T06:33:04.689Z,1160.00
2019-03-26T06:34:04.645Z,1292.00
2019-03-26T06:35:04.631Z,1392.00
2019-03-26T06:36:05.466Z,1280.00
2019-03-26T06:37:17.161Z,1160.00
2019-03-26T06:38:04.602Z,1296.00
2019-03-26T06:39:04.624Z,1180.00
2019-03-26T06:40:04.599Z,1208.00
2019-03-26T06:41:04.571Z,1480.00
2019-03-26T06:42:04.554Z,1276.00
2019-03-26T06:44:03.535Z,1384.00
2019-03-26T06:45:04.582Z,1348.00
2019-03-26T06:46:04.526Z,1504.00
2019-03-26T06:47:04.542Z,1404.00
2019-03-26T06:48:04.779Z,1324.00
2019-03-26T06:50:03.465Z,1896.00
2019-03-26T06:51:04.460Z,1652.00
2019-03-26T06:52:04.454Z,1492.00
2019-03-26T06:53:04.442Z,1592.00
2019-03-26T06:54:06.002Z,1604.00
2019-03-26T06:55:04.413Z,1468.00
2019-03-26T06:56:04.402Z,1416.00
2019-03-26T06:57:06.952Z,1432.00
2019-03-26T06:58:04.382Z,1384.00
2019-03-26T06:59:06.966Z,1508.00
2019-03-26T07:00:07.031Z,1800.00
2019-03-26T07:01:04.346Z,1888.00
2019-03-26T07:02:04.340Z,1648.00
2019-03-26T07:03:04.330Z,1836.00
2019-03-26T07:04:04.320Z,2272.00
2019-03-26T07:05:04.311Z,1924.00
2019-03-26T07:06:04.318Z,1764.00
2019-03-26T07:07:04.289Z,1460.00
2019-03-26T07:08:04.273Z,1308.00
2019-03-26T07:09:04.285Z,1264.00
2019-03-26T07:10:04.330Z,1232.00
2019-03-26T07:11:04.246Z,1336.00
2019-03-26T07:12:04.237Z,1872.00
2019-03-26T07:13:04.225Z,2012.00
2019-03-26T07:14:04.213Z,2004.00
2019-03-26T07:15:04.240Z,2396.00
2019-03-26T07:16:04.190Z,2720.00
2019-03-26T07:17:04.180Z,2604.00
2019-03-26T07:18:04.169Z,2292.00
2019-03-26T07:19:04.157Z,2148.00
2019-03-26T07:20:04.156Z,2380.00
2019-03-26T07:21:04.163Z,2148.00
2019-03-26T07:22:04.123Z,2324.00
2019-03-26T07:23:04.125Z,1968.00
2019-03-26T07:24:04.167Z,1832.00
2019-03-26T07:25:04.118Z,1644.00
2019-03-26T07:26:04.083Z,1192.00
2019-03-26T07:27:04.074Z,1128.00
2019-03-26T07:28:04.062Z,1128.00
2019-03-26T07:29:04.053Z,1144.00
2019-03-26T07:30:04.067Z,1212.00
2019-03-26T07:31:04.025Z,1116.00
2019-03-26T07:32:04.025Z,1224.00
2019-03-26T07:33:04.016Z,1516.00
2019-03-26T07:34:07.033Z,2148.00
2019-03-26T07:35:03.999Z,2104.00
2019-03-26T07:36:04.007Z,2052.00
2019-03-26T07:37:03.969Z,2268.00
2019-03-26T07:38:03.957Z,1860.00
2019-03-26T07:39:03.947Z,1632.00
2019-03-26T07:40:03.932Z,1236.00
2019-03-26T07:41:03.923Z,1176.00
2019-03-26T07:42:06.440Z,1336.00
2019-03-26T07:43:03.903Z,1576.00
2019-03-26T07:44:03.884Z,1416.00
2019-03-26T07:45:03.873Z,1236.00
2019-03-26T07:46:03.870Z,1116.00
2019-03-26T07:47:03.862Z,1068.00
2019-03-26T07:48:03.993Z,1580.00
2019-03-26T07:49:03.837Z,2392.00
2019-03-26T07:50:03.827Z,2072.00
2019-03-26T07:51:03.815Z,1672.00
2019-03-26T07:52:03.800Z,1952.00
2019-03-26T07:53:03.804Z,1784.00
2019-03-26T07:54:03.792Z,1820.00
2019-03-26T07:55:03.784Z,2020.00
2019-03-26T07:56:03.753Z,2096.00
2019-03-26T07:57:03.756Z,1932.00
2019-03-26T07:58:03.739Z,1796.00
2019-03-26T07:59:03.729Z,2132.00
2019-03-26T08:00:03.755Z,1868.00
2019-03-26T08:01:03.812Z,1508.00
2019-03-26T08:02:02.701Z,1520.00
2019-03-26T08:03:03.769Z,1496.00
2019-03-26T08:04:06.438Z,1256.00
2019-03-26T08:05:03.681Z,1712.00
2019-03-26T08:06:03.690Z,1616.00
2019-03-26T08:07:03.640Z,1820.00
2019-03-26T08:08:03.657Z,2348.00
2019-03-26T08:09:03.657Z,1988.00
2019-03-26T08:10:03.608Z,2104.00
2019-03-26T08:11:03.643Z,2072.00
2019-03-26T08:12:03.596Z,1916.00
2019-03-26T08:13:03.591Z,2164.00
2019-03-26T08:14:03.595Z,2080.00
2019-03-26T08:15:03.605Z,1980.00
2019-03-26T08:16:03.615Z,2088.00
2019-03-26T08:17:03.543Z,1920.00
2019-03-26T08:18:03.529Z,1668.00
2019-03-26T08:19:03.504Z,1780.00
2019-03-26T08:20:03.537Z,2040.00
2019-03-26T08:21:03.493Z,1996.00
2019-03-26T08:22:03.471Z,1896.00
2019-03-26T08:23:03.515Z,2556.00
2019-03-26T08:24:03.476Z,3016.00
2019-03-26T08:25:03.448Z,3004.00
2019-03-26T08:26:04.058Z,3084.00
2019-03-26T08:27:03.433Z,2432.00
2019-03-26T08:28:05.101Z,3420.00
2019-03-26T08:29:03.398Z,2436.00
2019-03-26T08:30:03.564Z,2496.00
2019-03-26T08:31:03.497Z,1932.00
2019-03-26T08:32:03.399Z,1876.00
2019-03-26T08:33:03.428Z,1532.00
2019-03-26T08:34:03.377Z,1896.00
2019-03-26T08:35:03.340Z,1908.00
2019-03-26T08:36:03.340Z,1328.00
2019-03-26T08:37:03.312Z,1424.00
2019-03-26T08:38:12.307Z,1044.00
2019-03-26T08:39:04.124Z,932.00
2019-03-26T08:40:03.459Z,1032.00
2019-03-26T08:41:03.284Z,1080.00
2019-03-26T08:42:04.000Z,996.00
2019-03-26T08:43:03.328Z,916.00
2019-03-26T08:44:03.613Z,800.00
2019-03-26T08:45:03.227Z,788.00
2019-03-26T08:46:03.924Z,836.00
2019-03-26T08:47:03.224Z,1056.00
2019-03-26T08:48:03.956Z,1452.00
2019-03-26T08:49:03.189Z,2152.00
2019-03-26T08:50:03.209Z,1792.00
2019-03-26T08:51:03.177Z,2068.00
2019-03-26T08:52:03.176Z,1648.00
2019-03-26T08:53:03.158Z,1376.00
2019-03-26T08:54:03.144Z,1948.00
2019-03-26T08:55:04.404Z,2424.00
2019-03-26T08:56:03.117Z,1520.00
2019-03-26T08:57:03.102Z,1484.00
2019-03-26T08:58:03.096Z,1848.00
2019-03-26T08:59:03.093Z,2016.00
2019-03-26T09:00:03.073Z,3348.00
2019-03-26T09:01:03.098Z,3280.00
2019-03-26T09:02:03.051Z,3324.00
2019-03-26T09:03:03.068Z,3880.00
2019-03-26T09:04:03.045Z,3468.00
2019-03-26T09:05:03.018Z,4164.00
2019-03-26T09:06:02.999Z,2300.00
2019-03-26T09:07:03.007Z,2008.00
2019-03-26T09:08:02.987Z,1800.00
2019-03-26T09:09:03.040Z,2372.00
2019-03-26T09:10:03.069Z,3384.00
2019-03-26T09:11:02.953Z,3552.00
2019-03-26T09:12:02.943Z,2684.00
2019-03-26T09:13:02.998Z,2680.00
2019-03-26T09:14:03.028Z,2652.00
2019-03-26T09:15:03.041Z,2508.00
2019-03-26T09:16:02.916Z,3516.00
2019-03-26T09:17:02.904Z,3536.00
2019-03-26T09:18:02.878Z,2124.00
2019-03-26T09:19:02.946Z,2976.00
2019-03-26T09:20:02.950Z,3400.00
2019-03-26T09:21:02.888Z,4960.00
2019-03-26T09:22:02.842Z,4124.00
2019-03-26T09:23:02.851Z,5756.00
2019-03-26T09:24:02.866Z,4916.00
2019-03-26T09:25:02.822Z,5612.00
2019-03-26T09:26:02.787Z,5748.00
2019-03-26T09:27:02.784Z,6152.00
2019-03-26T09:28:01.773Z,6348.00
2019-03-26T09:29:02.785Z,6752.00
2019-03-26T09:30:02.790Z,5544.00
2019-03-26T09:31:02.740Z,3776.00
2019-03-26T09:32:03.444Z,2884.00
2019-03-26T09:33:02.715Z,2180.00
2019-03-26T09:34:02.703Z,1936.00
2019-03-26T09:35:02.741Z,2040.00
2019-03-26T09:36:02.686Z,1980.00
2019-03-26T09:37:02.664Z,2112.00
2019-03-26T09:38:02.656Z,1932.00
2019-03-26T09:39:02.650Z,2128.00
2019-03-26T09:40:02.687Z,2412.00
2019-03-26T09:41:02.649Z,2588.00
2019-03-26T09:42:02.610Z,2420.00
2019-03-26T09:43:02.608Z,2588.00
2019-03-26T09:44:02.620Z,2424.00
2019-03-26T09:45:02.608Z,2464.00
2019-03-26T09:47:15.554Z,2368.00
2019-03-26T09:48:02.563Z,2516.00
2019-03-26T09:49:02.538Z,2572.00
2019-03-26T09:50:02.621Z,2960.00
2019-03-26T09:51:02.537Z,3748.00
2019-03-26T09:52:03.473Z,3656.00
2019-03-26T09:53:02.499Z,4020.00
2019-03-26T09:54:02.505Z,3096.00
2019-03-26T09:55:02.558Z,2972.00
2019-03-26T09:56:02.526Z,2940.00
2019-03-26T09:57:02.498Z,3364.00
2019-03-26T09:58:02.547Z,3324.00
2019-03-26T09:59:02.435Z,3656.00
2019-03-26T10:00:02.684Z,3756.00
2019-03-26T10:01:02.468Z,3784.00
2019-03-26T10:02:02.471Z,3492.00
2019-03-26T10:03:02.457Z,4560.00
2019-03-26T10:04:02.462Z,4812.00
2019-03-26T10:05:02.482Z,4976.00
2019-03-26T10:06:02.400Z,5404.00
2019-03-26T10:07:02.348Z,6180.00
2019-03-26T10:08:02.378Z,4784.00
2019-03-26T10:09:02.337Z,4600.00
2019-03-26T10:10:02.338Z,5432.00
2019-03-26T10:11:02.348Z,5296.00
2019-03-26T10:12:02.291Z,7168.00
2019-03-26T10:13:02.292Z,7336.00
2019-03-26T10:14:02.276Z,7000.00
2019-03-26T10:15:02.451Z,6640.00
2019-03-26T10:16:02.287Z,7076.00
2019-03-26T10:17:02.240Z,6780.00
2019-03-26T10:18:02.226Z,6452.00
2019-03-26T10:19:02.965Z,6436.00
2019-03-26T10:20:02.245Z,6944.00
2019-03-26T10:21:02.257Z,6744.00
2019-03-26T10:22:02.210Z,7396.00
2019-03-26T10:23:02.187Z,7620.00
2019-03-26T10:24:02.175Z,5468.00
2019-03-26T10:25:02.194Z,7060.00
2019-03-26T10:26:02.168Z,7104.00
2019-03-26T10:27:02.153Z,7028.00
2019-03-26T10:28:02.133Z,7608.00
2019-03-26T10:29:15.390Z,5756.00
2019-03-26T10:30:02.147Z,5060.00
2019-03-26T10:31:02.211Z,5744.00
2019-03-26T10:32:02.077Z,6220.00
2019-03-26T10:33:02.066Z,6840.00
2019-03-26T10:34:02.056Z,6580.00
2019-03-26T10:35:02.066Z,6296.00
2019-03-26T10:36:02.037Z,7908.00
2019-03-26T10:37:02.190Z,7556.00
2019-03-26T10:38:02.098Z,7716.00
2019-03-26T10:39:05.376Z,5668.00
2019-03-26T10:40:02.005Z,6556.00
2019-03-26T10:41:01.996Z,5992.00
2019-03-26T10:42:01.974Z,7048.00
2019-03-26T10:43:01.965Z,7340.00
2019-03-26T10:44:01.950Z,6964.00
2019-03-26T10:45:01.960Z,6928.00
2019-03-26T10:46:01.921Z,4984.00
2019-03-26T10:47:01.999Z,4208.00
2019-03-26T10:48:01.952Z,4576.00
2019-03-26T10:50:01.396Z,3560.00
2019-03-26T10:51:01.913Z,6068.00
2019-03-26T10:52:04.388Z,7052.00
2019-03-26T10:53:01.897Z,5632.00
2019-03-26T10:54:01.837Z,5596.00
2019-03-26T10:55:01.847Z,5472.00
2019-03-26T10:56:01.808Z,7156.00
2019-03-26T10:57:01.809Z,6768.00
2019-03-26T10:58:01.809Z,6684.00
2019-03-26T10:59:04.124Z,7500.00
2019-03-26T11:00:01.864Z,7060.00
2019-03-26T11:01:01.751Z,7252.00
2019-03-26T11:02:01.750Z,7356.00
2019-03-26T11:03:01.802Z,7820.00
2019-03-26T11:04:01.814Z,7372.00
2019-03-26T11:05:01.741Z,7504.00
2019-03-26T11:06:01.772Z,7800.00
2019-03-26T11:08:00.676Z,7448.00
2019-03-26T11:09:04.384Z,6724.00
2019-03-26T11:10:01.698Z,6852.00
2019-03-26T11:11:01.666Z,6760.00
2019-03-26T11:12:01.638Z,6316.00
2019-03-26T11:13:04.378Z,6884.00
2019-03-26T11:15:00.603Z,6608.00
2019-03-26T11:16:01.613Z,5444.00
2019-03-26T11:17:01.588Z,5296.00
2019-03-26T11:18:01.725Z,5936.00
2019-03-26T11:19:01.735Z,7284.00
2019-03-26T11:20:01.607Z,6812.00
2019-03-26T11:21:03.022Z,5164.00
2019-03-26T11:22:01.527Z,5092.00
2019-03-26T11:23:01.715Z,6040.00
2019-03-26T11:24:01.491Z,5368.00
2019-03-26T11:25:01.510Z,5276.00
2019-03-26T11:26:01.497Z,5600.00
2019-03-26T11:27:04.724Z,6144.00
2019-03-26T11:28:01.594Z,5620.00
2019-03-26T11:29:01.501Z,5776.00
2019-03-26T11:30:01.504Z,6756.00
2019-03-26T11:31:01.525Z,6724.00
2019-03-26T11:32:01.452Z,6176.00
2019-03-26T11:33:01.409Z,5888.00
2019-03-26T11:34:01.419Z,5624.00
2019-03-26T11:35:01.413Z,5876.00
2019-03-26T11:36:01.389Z,6376.00
2019-03-26T11:37:01.386Z,5808.00
2019-03-26T11:38:01.364Z,5096.00
2019-03-26T11:39:01.339Z,4972.00
2019-03-26T11:40:01.331Z,5860.00
2019-03-26T11:41:01.328Z,6116.00
2019-03-26T11:42:01.336Z,5676.00
2019-03-26T11:43:01.326Z,5776.00
2019-03-26T11:44:04.555Z,5512.00
2019-03-26T11:45:01.311Z,5964.00
2019-03-26T11:46:01.264Z,5444.00
2019-03-26T11:47:01.256Z,6308.00
2019-03-26T11:48:01.236Z,6040.00
2019-03-26T11:49:01.232Z,5648.00
2019-03-26T11:50:01.227Z,6140.00
2019-03-26T11:51:01.236Z,6048.00
2019-03-26T11:52:01.189Z,6168.00
2019-03-26T11:53:01.207Z,6000.00
2019-03-26T11:54:01.182Z,7244.00
2019-03-26T11:55:01.168Z,6236.00
2019-03-26T11:56:01.200Z,6124.00
2019-03-26T11:57:01.142Z,6176.00
2019-03-26T11:58:01.119Z,6904.00
2019-03-26T11:59:01.108Z,6916.00
2019-03-26T12:00:01.147Z,6828.00
2019-03-26T12:01:01.144Z,7492.00
2019-03-26T12:02:01.140Z,7384.00
2019-03-26T12:03:01.099Z,7364.00
2019-03-26T12:04:01.070Z,6584.00
2019-03-26T12:05:01.071Z,7276.00
2019-03-26T12:06:01.038Z,7096.00
2019-03-26T12:07:01.045Z,7512.00
2019-03-26T12:08:01.015Z,7540.00
2019-03-26T12:09:01.014Z,7768.00
2019-03-26T12:10:01.002Z,7472.00
2019-03-26T12:11:01.009Z,5684.00
2019-03-26T12:12:00.986Z,6000.00
2019-03-26T12:13:00.966Z,6508.00
2019-03-26T12:14:00.990Z,6292.00
2019-03-26T12:15:00.945Z,6716.00
2019-03-26T12:16:03.881Z,7164.00
2019-03-26T12:17:00.974Z,7264.00
2019-03-26T12:18:00.908Z,7672.00
2019-03-26T12:19:01.372Z,5668.00
2019-03-26T12:20:00.888Z,6512.00
2019-03-26T12:21:03.866Z,7432.00
2019-03-26T12:22:00.866Z,7516.00
2019-03-26T12:23:00.863Z,6920.00
2019-03-26T12:24:00.847Z,7484.00
2019-03-26T12:25:00.831Z,7796.00
2019-03-26T12:27:04.989Z,8276.00
2019-03-26T12:28:00.800Z,7068.00
2019-03-26T12:29:00.792Z,7784.00
2019-03-26T12:30:00.780Z,6608.00
2019-03-26T12:31:00.832Z,6952.00
2019-03-26T12:32:00.786Z,7316.00
2019-03-26T12:33:00.750Z,6976.00
2019-03-26T12:34:00.734Z,5508.00
2019-03-26T12:35:01.364Z,4676.00
2019-03-26T12:36:00.725Z,5840.00
2019-03-26T12:37:00.702Z,6444.00
2019-03-26T12:38:00.709Z,6100.00
2019-03-26T12:39:00.710Z,6184.00
2019-03-26T12:40:01.094Z,5828.00
2019-03-26T12:41:00.642Z,5340.00
2019-03-26T12:42:00.640Z,5692.00
2019-03-26T12:43:00.638Z,6096.00
2019-03-26T12:44:00.650Z,5804.00
2019-03-26T12:45:00.609Z,5172.00
2019-03-26T12:46:01.931Z,5064.00
2019-03-26T12:47:00.596Z,4648.00
2019-03-26T12:48:03.362Z,4500.00
2019-03-26T12:49:00.571Z,3160.00